Time;durP1;ratioP1;P1;durP2;ratioP2;P2;SDS_P1;SDS_P2;PMS_P1;PMS_P2;Temp;Humidity;BMP_temperature;BMP_pressure;BME280_temperature;BME280_humidity;BME280_pressure;Samples;Min_cycle;Max_cycle;Signal;HPM_P1;HPM_P2
2023/06/21 00:01:39;;;;;;;10.57;7.25;;;;;;;;;;5033390;28;20038;-61
2023/06/21 00:04:25;;;;;;;12.27;6.53;;;;;;;;;;5033192;28;20112;-57
2023/06/21 00:07:11;;;;;;;10.73;6.68;;;;;;;;;;5033313;28;20124;-61
2023/06/21 00:09:56;;;;;;;12.95;6.60;;;;;;;;;;5033112;28;20044;-62
2023/06/21 00:12:42;;;;;;;9.32;6.28;;;;;;;;;;5033294;28;20382;-63
2023/06/21 00:15:27;;;;;;;13.35;7.18;;;;;;;;;;5033011;28;20025;-62
2023/06/21 00:18:13;;;;;;;10.35;6.40;;;;;;;;;;5032126;28;20030;-62
2023/06/21 00:20:59;;;;;;;10.63;6.40;;;;;;;;;;5032489;28;20036;-54
2023/06/21 00:23:45;;;;;;;10.00;6.35;;;;;;;;;;5033067;28;20022;-64
2023/06/21 00:26:30;;;;;;;10.35;6.70;;;;;;;;;;5032679;28;20380;-63
2023/06/21 00:29:16;;;;;;;10.00;6.20;;;;;;;;;;5031781;28;20026;-64
2023/06/21 00:32:01;;;;;;;10.35;6.32;;;;;;;;;;5032602;28;20033;-63
2023/06/21 00:34:47;;;;;;;10.98;6.63;;;;;;;;;;5032770;28;20473;-64
2023/06/21 00:37:32;;;;;;;9.57;6.43;;;;;;;;;;5032648;28;20527;-63
2023/06/21 00:40:22;;;;;;;9.23;6.22;;;;;;;;;;5033043;28;20194;-72
2023/06/21 00:43:07;;;;;;;13.02;6.43;;;;;;;;;;5032403;28;20033;-57
2023/06/21 00:45:54;;;;;;;13.55;6.85;;;;;;;;;;5032538;28;20069;-58
2023/06/21 00:48:40;;;;;;;9.73;6.05;;;;;;;;;;5032541;28;20025;-56
2023/06/21 00:51:25;;;;;;;9.65;6.63;;;;;;;;;;5032145;28;20030;-57
2023/06/21 00:54:16;;;;;;;9.93;6.43;;;;;;;;;;5032570;28;20029;-57
2023/06/21 00:57:02;;;;;;;8.93;6.82;;;;;;;;;;5031569;28;20040;-60
2023/06/21 00:59:47;;;;;;;9.13;6.35;;;;;;;;;;5032365;28;20028;-55
2023/06/21 01:02:33;;;;;;;10.50;6.50;;;;;;;;;;5032140;28;20384;-59
2023/06/21 01:05:19;;;;;;;10.07;6.43;;;;;;;;;;5032129;28;20034;-59
2023/06/21 01:08:20;;;;;;;12.57;7.50;;;;;;;;;;5032281;28;20459;-60
2023/06/21 01:11:13;;;;;;;11.23;6.22;;;;;;;;;;5031751;28;20025;-59
2023/06/21 01:14:12;;;;;;;10.07;6.63;;;;;;;;;;5032185;28;20068;-60
2023/06/21 01:16:58;;;;;;;9.73;6.37;;;;;;;;;;5032162;28;20025;-68
2023/06/21 01:19:51;;;;;;;8.90;6.75;;;;;;;;;;5032824;28;20068;-56
2023/06/21 01:22:38;;;;;;;10.60;7.35;;;;;;;;;;5031814;28;20026;-57
2023/06/21 01:25:36;;;;;;;10.65;7.13;;;;;;;;;;5032031;28;20045;-57
2023/06/21 01:28:33;;;;;;;12.50;7.72;;;;;;;;;;5031974;28;20029;-57
2023/06/21 01:31:20;;;;;;;9.88;6.53;;;;;;;;;;5038676;28;20480;-57
2023/06/21 01:34:05;;;;;;;11.27;6.90;;;;;;;;;;5038390;28;20337;-58
2023/06/21 01:36:51;;;;;;;13.45;7.97;;;;;;;;;;5039061;28;20104;-72
2023/06/21 01:39:36;;;;;;;10.63;7.38;;;;;;;;;;5038525;28;20468;-57
2023/06/21 01:42:22;;;;;;;9.60;7.20;;;;;;;;;;5038381;28;20425;-57
2023/06/21 01:45:08;;;;;;;11.73;7.28;;;;;;;;;;5037993;28;20439;-57
2023/06/21 01:47:54;;;;;;;11.50;6.53;;;;;;;;;;5038190;28;20037;-56
2023/06/21 01:50:40;;;;;;;9.38;6.50;;;;;;;;;;5038586;28;20108;-55
2023/06/21 01:53:25;;;;;;;10.27;7.05;;;;;;;;;;5038502;28;20025;-58
2023/06/21 01:56:14;;;;;;;10.00;6.65;;;;;;;;;;5037561;28;20206;-59
2023/06/21 01:59:01;;;;;;;10.23;6.88;;;;;;;;;;5037944;28;20136;-59
2023/06/21 02:01:50;;;;;;;10.52;6.65;;;;;;;;;;5038211;28;20036;-60
2023/06/21 02:04:38;;;;;;;11.38;6.47;;;;;;;;;;5037658;28;20041;-60
2023/06/21 02:07:24;;;;;;;11.43;6.47;;;;;;;;;;5038714;28;20038;-60
2023/06/21 02:10:11;;;;;;;13.73;7.85;;;;;;;;;;5037892;28;20029;-60
2023/06/21 02:12:56;;;;;;;11.70;6.63;;;;;;;;;;5038170;28;20084;-60
2023/06/21 02:15:42;;;;;;;11.85;6.57;;;;;;;;;;5038272;28;20037;-73
2023/06/21 02:18:27;;;;;;;10.23;6.63;;;;;;;;;;5038315;28;20034;-73
2023/06/21 02:21:15;;;;;;;10.13;7.15;;;;;;;;;;5038196;28;20388;-73
2023/06/21 02:24:01;;;;;;;10.93;7.40;;;;;;;;;;5037313;28;20429;-74
2023/06/21 02:26:46;;;;;;;10.55;7.25;;;;;;;;;;5038065;28;20148;-74
2023/06/21 02:29:32;;;;;;;10.57;7.05;;;;;;;;;;5037998;28;20036;-72
2023/06/21 02:32:17;;;;;;;9.75;6.93;;;;;;;;;;5038368;28;20025;-64
2023/06/21 02:35:04;;;;;;;13.95;8.07;;;;;;;;;;5037640;28;20108;-64
2023/06/21 02:37:50;;;;;;;11.80;7.15;;;;;;;;;;5037361;28;20112;-64
2023/06/21 02:40:35;;;;;;;11.13;7.45;;;;;;;;;;5036400;28;20377;-64
2023/06/21 02:43:21;;;;;;;13.80;7.72;;;;;;;;;;5034977;28;20105;-65
2023/06/21 02:46:06;;;;;;;12.73;7.85;;;;;;;;;;5034489;28;20033;-65
2023/06/21 02:48:52;;;;;;;8.73;6.43;;;;;;;;;;5034884;28;20029;-58
2023/06/21 02:51:38;;;;;;;11.70;6.72;;;;;;;;;;5034702;28;20032;-67
2023/06/21 02:54:23;;;;;;;9.50;6.78;;;;;;;;;;5034563;28;20030;-67
2023/06/21 02:57:09;;;;;;;10.18;7.65;;;;;;;;;;5033375;28;20386;-66
2023/06/21 02:59:59;;;;;;;11.05;7.05;;;;;;;;;;5034413;28;20104;-67
2023/06/21 03:02:44;;;;;;;11.57;7.38;;;;;;;;;;5034377;28;20040;-67
2023/06/21 03:05:30;;;;;;;11.77;7.70;;;;;;;;;;5034271;28;20441;-67
2023/06/21 03:08:16;;;;;;;10.15;6.72;;;;;;;;;;5034901;28;20104;-64
2023/06/21 03:11:01;;;;;;;11.88;7.20;;;;;;;;;;5034248;28;20057;-58
2023/06/21 03:13:47;;;;;;;15.13;9.35;;;;;;;;;;5034263;28;20104;-57
2023/06/21 03:16:33;;;;;;;13.38;7.30;;;;;;;;;;5034169;28;20030;-57
2023/06/21 03:19:18;;;;;;;13.23;7.13;;;;;;;;;;5033997;28;20037;-57
2023/06/21 03:22:04;;;;;;;10.27;7.35;;;;;;;;;;5033944;28;20132;-57
2023/06/21 03:24:49;;;;;;;12.45;7.82;;;;;;;;;;5033762;28;20040;-56
2023/06/21 03:27:35;;;;;;;9.20;6.65;;;;;;;;;;5032975;28;20033;-67
2023/06/21 03:30:21;;;;;;;10.93;7.10;;;;;;;;;;5033525;28;20037;-66
2023/06/21 03:33:06;;;;;;;14.30;7.22;;;;;;;;;;5033921;28;20059;-67
2023/06/21 03:35:52;;;;;;;12.20;6.60;;;;;;;;;;5033483;28;20064;-66
2023/06/21 03:38:37;;;;;;;12.00;6.68;;;;;;;;;;5033737;28;20033;-66
2023/06/21 03:41:23;;;;;;;10.25;7.50;;;;;;;;;;5033685;28;20411;-66
2023/06/21 03:44:09;;;;;;;12.15;8.38;;;;;;;;;;5033650;28;20116;-62
2023/06/21 03:46:54;;;;;;;15.60;7.43;;;;;;;;;;5033424;28;20168;-61
2023/06/21 03:49:40;;;;;;;11.95;7.10;;;;;;;;;;5033803;28;20037;-61
2023/06/21 03:52:25;;;;;;;11.02;6.32;;;;;;;;;;5033537;28;20029;-61
2023/06/21 03:55:11;;;;;;;9.80;7.05;;;;;;;;;;5033603;28;20038;-61
2023/06/21 03:57:56;;;;;;;16.80;7.32;;;;;;;;;;5033621;28;20120;-61
2023/06/21 04:00:42;;;;;;;14.25;7.72;;;;;;;;;;5033258;28;20065;-61
2023/06/21 04:03:27;;;;;;;10.75;6.68;;;;;;;;;;5032876;28;20080;-63
2023/06/21 04:06:13;;;;;;;11.77;7.38;;;;;;;;;;5032876;28;20123;-58
2023/06/21 04:08:58;;;;;;;8.88;6.47;;;;;;;;;;5032754;28;20456;-59
2023/06/21 04:11:45;;;;;;;12.18;6.63;;;;;;;;;;5032603;28;20032;-59
2023/06/21 04:14:30;;;;;;;14.25;7.65;;;;;;;;;;5032724;28;20029;-60
2023/06/21 04:17:16;;;;;;;10.80;6.93;;;;;;;;;;5032493;28;20108;-59
2023/06/21 04:20:10;;;;;;;12.07;6.75;;;;;;;;;;5032767;28;20029;-61
2023/06/21 04:22:55;;;;;;;10.88;6.57;;;;;;;;;;5032358;28;20171;-62
2023/06/21 04:25:41;;;;;;;11.60;7.57;;;;;;;;;;5032648;28;20484;-60
2023/06/21 04:28:26;;;;;;;10.13;7.20;;;;;;;;;;5032460;28;20476;-61
2023/06/21 04:31:12;;;;;;;12.70;6.68;;;;;;;;;;5032683;28;20025;-61
2023/06/21 04:33:57;;;;;;;14.52;7.05;;;;;;;;;;5032243;28;20032;-61
2023/06/21 04:36:47;;;;;;;14.48;8.85;;;;;;;;;;5032474;28;20092;-62
2023/06/21 04:39:32;;;;;;;11.23;7.30;;;;;;;;;;5032316;28;20109;-63
2023/06/21 04:42:21;;;;;;;11.85;8.50;;;;;;;;;;5031957;28;20067;-64
2023/06/21 04:45:07;;;;;;;11.80;7.65;;;;;;;;;;5031905;28;20030;-65
2023/06/21 04:47:57;;;;;;;10.95;7.80;;;;;;;;;;5031750;28;20025;-66
2023/06/21 04:50:45;;;;;;;13.38;8.30;;;;;;;;;;5032036;28;20103;-65
2023/06/21 04:53:30;;;;;;;12.55;7.85;;;;;;;;;;5032032;28;20037;-66
2023/06/21 04:56:16;;;;;;;10.88;7.68;;;;;;;;;;5032336;28;20029;-73
2023/06/21 04:59:03;;;;;;;13.55;8.07;;;;;;;;;;5031731;28;20032;-57
2023/06/21 05:01:48;;;;;;;15.82;8.93;;;;;;;;;;5031463;28;20069;-63
2023/06/21 05:04:34;;;;;;;12.20;8.68;;;;;;;;;;5031294;28;20033;-63
2023/06/21 05:07:19;;;;;;;11.43;7.38;;;;;;;;;;5031792;28;20396;-63
2023/06/21 05:10:07;;;;;;;11.25;7.80;;;;;;;;;;5031501;28;20119;-64
2023/06/21 05:12:52;;;;;;;12.43;8.40;;;;;;;;;;5032098;28;20060;-63
2023/06/21 05:15:41;;;;;;;13.35;8.73;;;;;;;;;;5031612;28;20157;-55
2023/06/21 05:18:26;;;;;;;13.13;7.70;;;;;;;;;;5031782;28;20032;-61
2023/06/21 05:21:12;;;;;;;15.00;9.30;;;;;;;;;;5031632;28;20088;-61
2023/06/21 05:23:58;;;;;;;13.32;8.55;;;;;;;;;;5031804;28;20028;-61
2023/06/21 05:26:44;;;;;;;14.23;8.43;;;;;;;;;;5031622;28;20040;-61
2023/06/21 05:29:29;;;;;;;12.20;9.32;;;;;;;;;;5032238;28;20087;-61
2023/06/21 05:32:15;;;;;;;14.00;8.32;;;;;;;;;;5031748;28;20048;-61
2023/06/21 05:35:01;;;;;;;11.45;8.15;;;;;;;;;;5031792;28;20029;-63
2023/06/21 05:37:46;;;;;;;19.65;9.25;;;;;;;;;;5031867;28;20436;-59
2023/06/21 05:40:32;;;;;;;14.38;8.38;;;;;;;;;;5031619;28;20022;-59
2023/06/21 05:43:17;;;;;;;12.93;9.05;;;;;;;;;;5031675;28;20400;-60
2023/06/21 05:46:03;;;;;;;12.85;8.13;;;;;;;;;;5031120;28;20045;-61
2023/06/21 05:48:48;;;;;;;12.85;8.07;;;;;;;;;;5030510;28;20061;-59
2023/06/21 05:51:34;;;;;;;14.95;8.25;;;;;;;;;;5031408;28;20065;-78
2023/06/21 05:54:19;;;;;;;10.15;7.55;;;;;;;;;;5031753;28;20486;-73
2023/06/21 05:57:05;;;;;;;13.80;9.32;;;;;;;;;;5031051;28;20033;-67
2023/06/21 05:59:51;;;;;;;11.40;8.30;;;;;;;;;;5031394;28;20127;-66
2023/06/21 06:02:37;;;;;;;11.63;8.98;;;;;;;;;;5031423;28;20094;-65
2023/06/21 06:05:22;;;;;;;12.23;7.85;;;;;;;;;;5031167;28;20140;-66
2023/06/21 06:08:08;;;;;;;11.98;8.02;;;;;;;;;;5031056;28;20124;-66
2023/06/21 06:10:54;;;;;;;12.27;7.55;;;;;;;;;;5031048;28;20120;-64
2023/06/21 06:13:39;;;;;;;11.52;7.80;;;;;;;;;;5031017;28;20059;-56
2023/06/21 06:16:25;;;;;;;11.05;7.75;;;;;;;;;;5032037;28;20048;-58
2023/06/21 06:19:10;;;;;;;9.50;7.18;;;;;;;;;;5034922;28;20030;-56
2023/06/21 06:21:56;;;;;;;13.90;8.35;;;;;;;;;;5034486;28;20034;-55
2023/06/21 06:24:42;;;;;;;10.35;7.80;;;;;;;;;;5034711;28;20095;-55
2023/06/21 06:27:28;;;;;;;13.55;10.10;;;;;;;;;;5034282;28;20025;-57
2023/06/21 06:30:13;;;;;;;10.95;7.82;;;;;;;;;;5034689;28;20465;-65
2023/06/21 06:32:59;;;;;;;9.27;7.82;;;;;;;;;;5035124;28;20120;-60
2023/06/21 06:35:44;;;;;;;10.38;7.75;;;;;;;;;;5035041;28;20033;-60
2023/06/21 06:38:30;;;;;;;10.13;7.45;;;;;;;;;;5033923;28;20026;-61
2023/06/21 06:41:16;;;;;;;10.73;7.35;;;;;;;;;;5034715;28;20038;-60
2023/06/21 06:44:01;;;;;;;14.68;7.30;;;;;;;;;;5034524;28;20027;-61
2023/06/21 06:46:47;;;;;;;11.45;7.68;;;;;;;;;;5033829;28;20136;-65
2023/06/21 06:49:32;;;;;;;12.52;7.25;;;;;;;;;;5034404;28;20096;-61
2023/06/21 06:52:18;;;;;;;10.65;7.32;;;;;;;;;;5034083;28;20033;-55
2023/06/21 06:55:04;;;;;;;10.90;7.65;;;;;;;;;;5034336;28;20041;-57
2023/06/21 06:57:49;;;;;;;10.15;7.15;;;;;;;;;;5033790;28;20067;-57
2023/06/21 07:00:35;;;;;;;9.73;6.82;;;;;;;;;;5033893;28;20465;-58
2023/06/21 07:03:21;;;;;;;13.13;7.88;;;;;;;;;;5034108;28;20057;-57
2023/06/21 07:06:06;;;;;;;14.40;7.35;;;;;;;;;;5033928;28;20037;-66
2023/06/21 07:08:52;;;;;;;10.88;6.88;;;;;;;;;;5034200;28;20030;-62
2023/06/21 07:11:37;;;;;;;12.13;7.63;;;;;;;;;;5032882;28;20037;-62
2023/06/21 07:14:23;;;;;;;12.40;7.63;;;;;;;;;;5033616;28;20413;-62
2023/06/21 07:17:08;;;;;;;12.20;6.90;;;;;;;;;;5034069;28;20029;-62
2023/06/21 07:19:54;;;;;;;15.82;8.13;;;;;;;;;;5033809;28;20453;-62
2023/06/21 07:22:39;;;;;;;13.43;7.43;;;;;;;;;;5033785;28;20044;-62
2023/06/21 07:25:26;;;;;;;9.73;5.32;;;;;;;;;;5033898;28;20021;-68
2023/06/21 07:28:12;;;;;;;9.00;6.35;;;;;;;;;;5033011;28;20050;-64
2023/06/21 07:30:59;;;;;;;12.32;6.60;;;;;;;;;;5033500;28;20032;-64
2023/06/21 07:33:47;;;;;;;14.98;6.57;;;;;;;;;;5032324;28;20025;-64
2023/06/21 07:36:33;;;;;;;12.77;6.27;;;;;;;;;;5033331;28;20025;-64
2023/06/21 07:39:19;;;;;;;13.15;6.20;;;;;;;;;;5033136;28;20021;-63
2023/06/21 07:42:06;;;;;;;8.88;5.93;;;;;;;;;;5033420;28;20048;-65
2023/06/21 07:44:53;;;;;;;8.38;5.80;;;;;;;;;;5033333;28;20036;-63
2023/06/21 07:47:41;;;;;;;8.95;5.78;;;;;;;;;;5033067;28;20029;-57
2023/06/21 07:50:27;;;;;;;7.93;5.32;;;;;;;;;;5032585;28;20067;-57
2023/06/21 07:53:13;;;;;;;10.93;6.13;;;;;;;;;;5032903;28;20091;-59
2023/06/21 07:56:00;;;;;;;9.85;6.07;;;;;;;;;;5033362;28;20546;-57
2023/06/21 07:58:46;;;;;;;10.65;5.20;;;;;;;;;;5032897;28;20021;-58
2023/06/21 08:01:32;;;;;;;9.25;5.53;;;;;;;;;;5032748;28;20033;-65
2023/06/21 08:04:18;;;;;;;8.57;5.60;;;;;;;;;;5032771;28;20021;-57
2023/06/21 08:07:03;;;;;;;10.30;6.30;;;;;;;;;;5032855;28;20140;-58
2023/06/21 08:09:49;;;;;;;8.20;5.53;;;;;;;;;;5032957;28;20026;-56
2023/06/21 08:12:34;;;;;;;7.78;5.00;;;;;;;;;;5032660;28;20123;-58
2023/06/21 08:15:21;;;;;;;8.68;5.43;;;;;;;;;;5032648;28;20079;-58
2023/06/21 08:18:07;;;;;;;10.52;5.10;;;;;;;;;;5032727;28;20031;-58
2023/06/21 08:20:52;;;;;;;7.93;5.13;;;;;;;;;;5032760;28;20025;-58
2023/06/21 08:23:38;;;;;;;9.77;5.25;;;;;;;;;;5032183;28;20041;-63
2023/06/21 08:26:23;;;;;;;11.48;5.20;;;;;;;;;;5032437;28;20017;-64
2023/06/21 08:29:09;;;;;;;10.10;5.72;;;;;;;;;;5032187;28;20037;-63
2023/06/21 08:31:54;;;;;;;10.50;5.20;;;;;;;;;;5032424;28;20029;-64
2023/06/21 08:34:40;;;;;;;8.52;5.47;;;;;;;;;;5032346;28;20075;-64
2023/06/21 08:37:25;;;;;;;7.65;4.85;;;;;;;;;;5032313;28;20026;-67
2023/06/21 08:40:13;;;;;;;10.63;5.07;;;;;;;;;;5031226;28;20376;-58
2023/06/21 08:43:00;;;;;;;9.65;5.57;;;;;;;;;;5032174;28;20388;-58
2023/06/21 08:45:45;;;;;;;9.98;5.80;;;;;;;;;;5031994;28;20030;-58
2023/06/21 08:48:31;;;;;;;8.75;5.07;;;;;;;;;;5031764;28;20029;-59
2023/06/21 08:51:20;;;;;;;11.45;4.93;;;;;;;;;;5031864;28;20037;-55
2023/06/21 08:54:09;;;;;;;9.02;5.18;;;;;;;;;;5032200;28;20126;-57
2023/06/21 08:57:06;;;;;;;9.02;5.13;;;;;;;;;;5031921;28;20065;-66
2023/06/21 08:59:59;;;;;;;8.32;5.00;;;;;;;;;;5032198;28;20091;-65
2023/06/21 09:03:00;;;;;;;8.55;4.93;;;;;;;;;;5016572;28;20395;-65
2023/06/21 09:05:49;;;;;;;9.30;4.97;;;;;;;;;;5031247;28;20037;-67
2023/06/21 09:08:35;;;;;;;7.75;4.53;;;;;;;;;;5031490;28;20032;-67
2023/06/21 09:11:22;;;;;;;8.35;5.00;;;;;;;;;;5030920;28;20022;-66
2023/06/21 09:14:07;;;;;;;5.97;4.38;;;;;;;;;;5031234;28;20040;-64
2023/06/21 09:16:53;;;;;;;15.40;5.75;;;;;;;;;;5031491;28;20069;-56
2023/06/21 09:19:39;;;;;;;6.10;4.05;;;;;;;;;;5031941;28;20040;-56
2023/06/21 09:22:26;;;;;;;7.70;4.60;;;;;;;;;;5031360;28;20376;-57
2023/06/21 09:25:12;;;;;;;9.48;5.35;;;;;;;;;;5031284;28;20148;-57
2023/06/21 09:27:58;;;;;;;11.88;5.85;;;;;;;;;;5031371;28;20025;-58
2023/06/21 09:30:44;;;;;;;10.05;5.63;;;;;;;;;;5031772;28;20384;-57
2023/06/21 09:33:29;;;;;;;11.80;5.45;;;;;;;;;;5031718;28;20037;-63
2023/06/21 09:36:15;;;;;;;11.48;5.55;;;;;;;;;;5031388;28;20368;-67
2023/06/21 09:39:10;;;;;;;12.77;5.18;;;;;;;;;;5031725;28;20030;-65
2023/06/21 09:41:56;;;;;;;13.23;5.82;;;;;;;;;;5031483;28;20119;-67
2023/06/21 09:44:41;;;;;;;10.25;5.90;;;;;;;;;;5031608;28;20033;-66
2023/06/21 09:47:30;;;;;;;11.05;6.07;;;;;;;;;;5030934;28;20036;-66
2023/06/21 09:50:16;;;;;;;13.93;6.03;;;;;;;;;;5031691;28;20102;-66
2023/06/21 09:53:01;;;;;;;14.40;6.57;;;;;;;;;;5035464;28;20065;-60
2023/06/21 09:55:47;;;;;;;11.00;6.78;;;;;;;;;;5035032;28;20076;-65
2023/06/21 09:58:34;;;;;;;13.80;6.78;;;;;;;;;;5035446;28;20080;-66
2023/06/21 10:01:19;;;;;;;10.20;6.53;;;;;;;;;;5035230;28;20022;-66
2023/06/21 10:04:08;;;;;;;10.85;6.22;;;;;;;;;;5035012;28;20381;-66
2023/06/21 10:06:54;;;;;;;12.85;7.07;;;;;;;;;;5035148;28;20030;-66
2023/06/21 10:09:40;;;;;;;14.75;7.55;;;;;;;;;;5034114;28;20034;-62
2023/06/21 10:12:26;;;;;;;11.98;7.38;;;;;;;;;;5034881;28;20021;-56
2023/06/21 10:15:13;;;;;;;15.40;7.80;;;;;;;;;;5034842;28;20033;-53
2023/06/21 10:17:59;;;;;;;13.85;6.88;;;;;;;;;;5034975;28;20040;-57
2023/06/21 10:20:46;;;;;;;13.52;7.95;;;;;;;;;;5034386;28;20044;-58
2023/06/21 10:23:34;;;;;;;14.10;7.03;;;;;;;;;;5034505;28;20025;-57
2023/06/21 10:26:20;;;;;;;13.20;7.18;;;;;;;;;;5035388;28;20112;-56
2023/06/21 10:29:06;;;;;;;14.57;8.60;;;;;;;;;;5034805;28;20108;-57
2023/06/21 10:31:53;;;;;;;13.18;9.13;;;;;;;;;;5034669;28;20033;-57
2023/06/21 10:34:41;;;;;;;11.95;7.15;;;;;;;;;;5035527;28;20034;-58
2023/06/21 10:37:36;;;;;;;15.57;8.02;;;;;;;;;;5034510;28;20037;-57
2023/06/21 10:40:21;;;;;;;12.88;8.70;;;;;;;;;;5033984;28;20033;-56
2023/06/21 10:43:08;;;;;;;17.23;7.68;;;;;;;;;;5034214;28;20112;-57
2023/06/21 10:45:55;;;;;;;12.43;8.20;;;;;;;;;;5033679;28;20041;-70
2023/06/21 10:48:41;;;;;;;11.95;7.38;;;;;;;;;;5034224;28;20029;-63
2023/06/21 10:51:27;;;;;;;14.23;9.02;;;;;;;;;;5034171;28;20088;-71
2023/06/21 10:54:14;;;;;;;13.57;8.10;;;;;;;;;;5033908;28;20025;-72
2023/06/21 10:56:59;;;;;;;15.15;8.98;;;;;;;;;;5034172;28;20021;-71
2023/06/21 10:59:45;;;;;;;17.02;8.27;;;;;;;;;;5034134;28;20109;-72
2023/06/21 11:02:31;;;;;;;10.48;6.85;;;;;;;;;;5033140;28;20036;-73
2023/06/21 11:05:21;;;;;;;12.68;7.15;;;;;;;;;;5033949;28;20425;-65
2023/06/21 11:08:09;;;;;;;9.68;7.05;;;;;;;;;;5034005;28;20037;-65
2023/06/21 11:10:54;;;;;;;9.55;6.82;;;;;;;;;;5032687;28;20495;-66
2023/06/21 11:13:40;;;;;;;11.20;7.30;;;;;;;;;;5033720;28;20068;-64
2023/06/21 11:16:26;;;;;;;11.40;7.38;;;;;;;;;;5034057;28;20409;-66
2023/06/21 11:19:13;;;;;;;11.60;7.47;;;;;;;;;;5033657;28;20033;-64
2023/06/21 11:22:12;;;;;;;12.05;6.95;;;;;;;;;;5033264;28;20028;-64
2023/06/21 11:25:14;;;;;;;12.75;7.35;;;;;;;;;;5033697;28;20029;-62
2023/06/21 11:28:18;;;;;;;10.57;6.57;;;;;;;;;;5033434;28;20025;-56
2023/06/21 11:31:06;;;;;;;10.32;7.00;;;;;;;;;;5033126;28;20026;-57
2023/06/21 11:33:51;;;;;;;9.18;6.10;;;;;;;;;;5033606;28;20538;-56
2023/06/21 11:36:37;;;;;;;12.25;6.88;;;;;;;;;;5033570;28;20029;-57
2023/06/21 11:39:23;;;;;;;12.07;6.95;;;;;;;;;;5033379;28;20022;-57
2023/06/21 11:42:13;;;;;;;10.43;6.82;;;;;;;;;;5033606;28;20499;-60
2023/06/21 11:45:17;;;;;;;9.93;7.35;;;;;;;;;;5033090;28;20427;-72
2023/06/21 11:48:03;;;;;;;9.68;6.32;;;;;;;;;;5033729;28;20044;-72
2023/06/21 11:50:49;;;;;;;14.93;6.47;;;;;;;;;;5033444;28;20128;-71
2023/06/21 11:53:39;;;;;;;11.73;6.82;;;;;;;;;;5033878;28;20104;-72
2023/06/21 11:56:29;;;;;;;13.50;6.25;;;;;;;;;;5033137;28;20034;-71
2023/06/21 11:59:14;;;;;;;9.20;5.90;;;;;;;;;;5033653;28;20029;-59
2023/06/21 12:02:16;;;;;;;12.10;5.88;;;;;;;;;;5033224;28;20480;-57
2023/06/21 12:05:02;;;;;;;11.23;6.35;;;;;;;;;;5033400;28;20029;-61
2023/06/21 12:07:47;;;;;;;10.98;6.68;;;;;;;;;;5033369;28;20029;-62
2023/06/21 12:10:34;;;;;;;10.48;6.68;;;;;;;;;;5033132;28;20131;-62
2023/06/21 12:13:20;;;;;;;9.98;6.35;;;;;;;;;;5032692;28;20116;-62
2023/06/21 12:16:06;;;;;;;15.32;6.30;;;;;;;;;;5033325;28;20025;-61
2023/06/21 12:18:52;;;;;;;11.15;6.78;;;;;;;;;;5032901;28;20048;-71
2023/06/21 12:21:40;;;;;;;8.88;5.53;;;;;;;;;;5032930;28;20469;-65
2023/06/21 12:24:27;;;;;;;11.70;6.70;;;;;;;;;;5032241;28;20036;-65
2023/06/21 12:27:13;;;;;;;9.90;4.80;;;;;;;;;;5032541;28;20030;-67
2023/06/21 12:30:00;;;;;;;10.52;5.55;;;;;;;;;;5032566;28;20045;-64
2023/06/21 12:32:46;;;;;;;7.82;4.65;;;;;;;;;;5032395;28;20021;-64
2023/06/21 12:35:35;;;;;;;11.00;5.43;;;;;;;;;;5031745;28;20096;-65
2023/06/21 12:38:21;;;;;;;12.40;5.78;;;;;;;;;;5032712;28;20030;-64
2023/06/21 12:41:06;;;;;;;7.10;4.95;;;;;;;;;;5032607;28;20104;-58
2023/06/21 12:43:57;;;;;;;8.40;5.53;;;;;;;;;;5032305;28;20116;-54
2023/06/21 12:46:42;;;;;;;8.15;5.78;;;;;;;;;;5032359;28;20435;-56
2023/06/21 12:49:29;;;;;;;6.88;4.72;;;;;;;;;;5032113;28;20029;-56
2023/06/21 12:52:14;;;;;;;8.13;5.30;;;;;;;;;;5032053;28;20148;-56
2023/06/21 12:55:01;;;;;;;9.48;4.93;;;;;;;;;;5032010;28;20037;-70
2023/06/21 12:57:46;;;;;;;7.80;4.75;;;;;;;;;;5031591;28;20021;-63
2023/06/21 13:00:32;;;;;;;6.88;4.82;;;;;;;;;;5031821;28;20095;-61
2023/06/21 13:03:19;;;;;;;7.03;4.47;;;;;;;;;;5031887;28;20029;-61
2023/06/21 13:06:05;;;;;;;6.85;4.40;;;;;;;;;;5031557;28;20465;-61
2023/06/21 13:08:51;;;;;;;6.80;4.22;;;;;;;;;;5032003;28;20112;-60
2023/06/21 13:11:37;;;;;;;8.73;4.53;;;;;;;;;;5031724;28;20029;-61
2023/06/21 13:14:22;;;;;;;8.02;4.80;;;;;;;;;;5032094;28;20021;-64
2023/06/21 13:17:08;;;;;;;5.70;3.78;;;;;;;;;;5032066;28;20120;-62
2023/06/21 13:19:53;;;;;;;7.10;4.50;;;;;;;;;;5031854;28;20431;-62
2023/06/21 13:22:39;;;;;;;8.30;4.00;;;;;;;;;;5032065;28;20029;-62
2023/06/21 13:25:25;;;;;;;7.95;4.70;;;;;;;;;;5031021;28;20049;-62
2023/06/21 13:28:10;;;;;;;5.93;3.95;;;;;;;;;;5032004;28;20030;-62
2023/06/21 13:30:56;;;;;;;6.78;4.10;;;;;;;;;;5031841;28;20487;-62
2023/06/21 13:33:41;;;;;;;9.77;4.88;;;;;;;;;;5032056;28;20026;-60
2023/06/21 13:36:27;;;;;;;7.55;5.00;;;;;;;;;;5031583;28;20108;-57
2023/06/21 13:39:12;;;;;;;11.40;6.43;;;;;;;;;;5031865;28;20449;-58
2023/06/21 13:41:58;;;;;;;9.48;5.20;;;;;;;;;;5031077;28;20392;-56
2023/06/21 13:44:43;;;;;;;8.95;4.75;;;;;;;;;;5031743;28;20041;-57
2023/06/21 13:47:29;;;;;;;6.93;4.45;;;;;;;;;;5031560;28;20037;-55
2023/06/21 13:50:15;;;;;;;10.18;4.75;;;;;;;;;;5031567;28;20476;-65
2023/06/21 13:53:00;;;;;;;8.48;4.65;;;;;;;;;;5031706;28;20076;-74
2023/06/21 13:55:46;;;;;;;7.65;4.90;;;;;;;;;;5031432;28;20029;-73
2023/06/21 13:58:31;;;;;;;9.25;5.07;;;;;;;;;;5032302;28;20104;-71
2023/06/21 14:01:17;;;;;;;8.10;4.85;;;;;;;;;;5031899;28;20108;-73
2023/06/21 14:04:03;;;;;;;8.38;4.68;;;;;;;;;;5031540;28;20029;-72
2023/06/21 14:06:48;;;;;;;7.80;4.97;;;;;;;;;;5031677;28;20049;-72
2023/06/21 14:09:35;;;;;;;8.02;4.57;;;;;;;;;;5031790;28;20033;-73
2023/06/21 14:12:21;;;;;;;10.02;4.90;;;;;;;;;;5031305;28;20044;-63
2023/06/21 14:15:07;;;;;;;9.85;5.10;;;;;;;;;;5031528;28;20038;-61
2023/06/21 14:17:54;;;;;;;8.75;5.10;;;;;;;;;;5031704;28;20108;-60
2023/06/21 14:20:40;;;;;;;8.00;4.13;;;;;;;;;;5031494;28;20033;-60
2023/06/21 14:23:25;;;;;;;10.52;4.90;;;;;;;;;;5031144;28;20036;-61
2023/06/21 14:26:11;;;;;;;8.27;4.50;;;;;;;;;;5031230;28;20037;-61
2023/06/21 14:28:56;;;;;;;7.05;4.38;;;;;;;;;;5031660;28;20040;-64
2023/06/21 14:31:42;;;;;;;8.13;4.45;;;;;;;;;;5031099;28;20054;-61
2023/06/21 14:34:28;;;;;;;6.30;4.60;;;;;;;;;;5031434;28;20115;-61
2023/06/21 14:37:15;;;;;;;6.85;4.30;;;;;;;;;;5032502;28;20029;-77
2023/06/21 14:40:02;;;;;;;9.10;5.28;;;;;;;;;;5036069;28;20353;-74
2023/06/21 14:42:48;;;;;;;9.60;5.10;;;;;;;;;;5035451;28;20400;-76
2023/06/21 14:45:33;;;;;;;6.57;4.57;;;;;;;;;;5035194;28;20087;-69
2023/06/21 14:48:19;;;;;;;8.20;4.95;;;;;;;;;;5034788;28;20068;-69
2023/06/21 14:51:11;;;;;;;9.80;5.40;;;;;;;;;;5035173;28;20021;-70
2023/06/21 14:53:57;;;;;;;7.72;5.00;;;;;;;;;;5035072;28;20396;-70
2023/06/21 14:56:43;;;;;;;8.10;4.53;;;;;;;;;;5035281;28;20108;-70
2023/06/21 14:59:28;;;;;;;10.02;4.57;;;;;;;;;;5035667;28;20094;-70
2023/06/21 15:02:14;;;;;;;8.18;4.95;;;;;;;;;;5035627;28;20030;-70
2023/06/21 15:04:59;;;;;;;8.48;5.00;;;;;;;;;;5035023;28;20056;-73
2023/06/21 15:07:45;;;;;;;7.40;4.70;;;;;;;;;;5034905;28;20022;-67
2023/06/21 15:10:31;;;;;;;8.50;4.63;;;;;;;;;;5035044;28;20103;-67
2023/06/21 15:13:17;;;;;;;7.80;4.25;;;;;;;;;;5034592;28;20025;-68
2023/06/21 15:16:02;;;;;;;7.13;4.35;;;;;;;;;;5034861;28;20056;-68
2023/06/21 15:18:48;;;;;;;11.40;5.10;;;;;;;;;;5034680;28;20025;-68
2023/06/21 15:21:33;;;;;;;11.05;5.93;;;;;;;;;;5034763;28;20464;-68
2023/06/21 15:24:19;;;;;;;10.00;5.60;;;;;;;;;;5034577;28;20423;-74
2023/06/21 15:27:04;;;;;;;8.05;5.07;;;;;;;;;;5034643;28;20045;-70
2023/06/21 15:29:50;;;;;;;13.23;5.25;;;;;;;;;;5034365;28;20025;-69
2023/06/21 15:32:37;;;;;;;12.68;6.15;;;;;;;;;;5033849;28;20045;-69
2023/06/21 15:35:22;;;;;;;9.77;5.35;;;;;;;;;;5034496;28;20465;-69
2023/06/21 15:38:09;;;;;;;9.85;5.65;;;;;;;;;;5034347;28;20385;-70
2023/06/21 15:40:55;;;;;;;9.10;5.60;;;;;;;;;;5034298;28;20035;-74
2023/06/21 15:43:41;;;;;;;8.85;5.05;;;;;;;;;;5034397;28;20096;-69
2023/06/21 15:46:28;;;;;;;8.65;5.28;;;;;;;;;;5034029;28;20543;-70
2023/06/21 15:49:14;;;;;;;7.93;5.38;;;;;;;;;;5033793;28;20087;-70
2023/06/21 15:51:59;;;;;;;13.43;6.30;;;;;;;;;;5033943;28;20076;-70
2023/06/21 15:54:46;;;;;;;8.40;5.82;;;;;;;;;;5033989;28;20159;-71
2023/06/21 15:57:33;;;;;;;9.50;5.60;;;;;;;;;;5033879;28;20127;-69
2023/06/21 16:00:20;;;;;;;7.80;5.03;;;;;;;;;;5033558;28;20069;-70
2023/06/21 16:03:05;;;;;;;9.30;5.20;;;;;;;;;;5033500;28;20120;-69
2023/06/21 16:05:52;;;;;;;8.02;4.85;;;;;;;;;;5033633;28;20449;-69
2023/06/21 16:08:38;;;;;;;11.93;5.63;;;;;;;;;;5033787;28;20033;-70
2023/06/21 16:11:23;;;;;;;9.50;5.57;;;;;;;;;;5033799;28;20068;-69
2023/06/21 16:14:09;;;;;;;10.90;5.65;;;;;;;;;;5033342;28;20039;-70
2023/06/21 16:16:55;;;;;;;9.93;5.53;;;;;;;;;;5033791;28;20445;-70
2023/06/21 16:19:40;;;;;;;9.45;5.45;;;;;;;;;;5033662;28;20033;-68
2023/06/21 16:22:26;;;;;;;10.63;5.35;;;;;;;;;;5033468;28;20112;-69
2023/06/21 16:25:11;;;;;;;7.07;5.05;;;;;;;;;;5033565;28;20119;-69
2023/06/21 16:27:57;;;;;;;8.20;5.15;;;;;;;;;;5033209;28;20032;-70
2023/06/21 16:30:42;;;;;;;10.23;5.70;;;;;;;;;;5033130;28;20040;-70